Time;durP1;ratioP1;P1;durP2;ratioP2;P2;SDS_P1;SDS_P2;PMS_P1;PMS_P2;Temp;Humidity;BMP_temperature;BMP_pressure;BME280_temperature;BME280_humidity;BME280_pressure;Samples;Min_cycle;Max_cycle;Signal;HPM_P1;HPM_P2
2024/01/04 00:01:51;;;;;;;3.28;1.88;;;;;;;;;;4808420;29;20125;-82
2024/01/04 00:04:17;;;;;;;1.85;1.15;;;;;;;;;;4822244;29;20374;-82
2024/01/04 00:06:44;;;;;;;5.47;3.33;;;;;;;;;;4804642;29;20051;-83
2024/01/04 00:09:10;;;;;;;4.60;2.85;;;;;;;;;;4805674;29;20074;-82
2024/01/04 00:11:36;;;;;;;3.22;1.67;;;;;;;;;;4813422;29;20042;-83
2024/01/04 00:14:05;;;;;;;3.03;1.73;;;;;;;;;;4805540;29;20088;-83
2024/01/04 00:16:33;;;;;;;1.42;1.30;;;;;;;;;;4805168;29;20042;-83
2024/01/04 00:18:59;;;;;;;2.40;1.23;;;;;;;;;;4831028;29;20133;-82
2024/01/04 00:21:25;;;;;;;2.50;0.60;;;;;;;;;;4822095;29;20117;-83
2024/01/04 00:23:51;;;;;;;3.42;0.80;;;;;;;;;;4804630;29;20120;-82
2024/01/04 00:26:17;;;;;;;2.58;1.77;;;;;;;;;;4811384;29;20053;-83
2024/01/04 00:28:43;;;;;;;2.05;1.15;;;;;;;;;;4821566;29;20451;-83
2024/01/04 00:31:09;;;;;;;1.65;0.82;;;;;;;;;;4821668;29;20077;-83
2024/01/04 00:33:35;;;;;;;14.02;0.50;;;;;;;;;;4818642;29;20397;-84
2024/01/04 00:36:01;;;;;;;2.40;0.75;;;;;;;;;;4803743;29;20050;-83
2024/01/04 00:38:27;;;;;;;3.40;0.70;;;;;;;;;;4808976;29;20077;-83
2024/01/04 00:40:53;;;;;;;0.88;0.40;;;;;;;;;;4808029;29;20070;-83
2024/01/04 00:43:19;;;;;;;3.90;1.55;;;;;;;;;;4799260;29;20078;-84
2024/01/04 00:45:45;;;;;;;0.22;0.20;;;;;;;;;;4822561;29;20093;-83
2024/01/04 00:48:11;;;;;;;0.88;0.52;;;;;;;;;;4809251;29;20050;-84
2024/01/04 00:50:37;;;;;;;10.15;3.03;;;;;;;;;;4817559;29;20038;-84
2024/01/04 00:53:03;;;;;;;5.90;2.03;;;;;;;;;;4805347;29;20564;-83
2024/01/04 00:55:29;;;;;;;6.40;2.28;;;;;;;;;;4812501;29;20493;-83
2024/01/04 00:57:57;;;;;;;2.30;1.15;;;;;;;;;;4808062;29;20057;-83
2024/01/04 01:00:23;;;;;;;2.28;1.42;;;;;;;;;;4801499;29;20126;-84
2024/01/04 01:02:49;;;;;;;6.82;1.83;;;;;;;;;;4791496;29;20857;-83
2024/01/04 01:05:15;;;;;;;7.38;2.03;;;;;;;;;;4802064;29;20046;-83
2024/01/04 01:07:41;;;;;;;1.33;0.70;;;;;;;;;;4796599;29;20473;-83
2024/01/04 01:10:07;;;;;;;4.30;2.03;;;;;;;;;;4820565;29;20078;-83
2024/01/04 01:12:33;;;;;;;8.60;3.28;;;;;;;;;;4801537;29;20042;-83
2024/01/04 01:14:59;;;;;;;9.30;2.55;;;;;;;;;;4818654;29;20046;-83
2024/01/04 01:17:25;;;;;;;3.90;0.80;;;;;;;;;;4810260;29;20681;-83
2024/01/04 01:19:51;;;;;;;2.08;1.15;;;;;;;;;;4820572;29;20190;-83
2024/01/04 01:22:17;;;;;;;2.35;1.35;;;;;;;;;;4804907;29;21038;-82
2024/01/04 01:24:43;;;;;;;1.90;0.77;;;;;;;;;;4811041;29;20046;-83
2024/01/04 01:27:09;;;;;;;0.75;0.30;;;;;;;;;;4795686;29;20057;-83
2024/01/04 01:29:35;;;;;;;0.85;0.50;;;;;;;;;;4803442;29;20042;-83
2024/01/04 01:32:01;;;;;;;2.75;0.75;;;;;;;;;;4821317;29;20066;-83
2024/01/04 01:34:27;;;;;;;5.07;1.30;;;;;;;;;;4824147;29;20192;-83
2024/01/04 01:36:53;;;;;;;3.20;0.52;;;;;;;;;;4803937;29;20054;-83
2024/01/04 01:39:19;;;;;;;0.52;0.30;;;;;;;;;;4823344;29;20125;-83
2024/01/04 01:41:45;;;;;;;0.63;0.52;;;;;;;;;;4803621;29;20137;-83
2024/01/04 01:44:11;;;;;;;3.53;1.38;;;;;;;;;;4812551;29;20043;-83
2024/01/04 01:46:38;;;;;;;1.45;0.75;;;;;;;;;;4807159;29;20054;-82
2024/01/04 01:49:04;;;;;;;2.15;1.02;;;;;;;;;;4808308;29;20039;-82
2024/01/04 01:51:30;;;;;;;0.88;0.55;;;;;;;;;;4823953;29;20042;-82
2024/01/04 01:53:56;;;;;;;2.72;1.17;;;;;;;;;;4828733;29;20553;-83
2024/01/04 01:56:23;;;;;;;1.85;1.45;;;;;;;;;;4806825;29;20046;-83
2024/01/04 01:58:49;;;;;;;0.88;0.65;;;;;;;;;;4820688;29;20401;-83
2024/01/04 02:01:16;;;;;;;0.47;0.32;;;;;;;;;;4810592;29;20046;-82
2024/01/04 02:03:42;;;;;;;0.47;0.35;;;;;;;;;;4806194;29;20393;-83
2024/01/04 02:06:08;;;;;;;4.15;0.77;;;;;;;;;;4805195;29;20088;-83
2024/01/04 02:08:34;;;;;;;3.63;1.27;;;;;;;;;;4817525;29;20050;-83
2024/01/04 02:11:00;;;;;;;1.75;0.20;;;;;;;;;;4807786;29;20096;-83
2024/01/04 02:13:26;;;;;;;0.82;0.20;;;;;;;;;;4816039;29;20054;-83
2024/01/04 02:15:52;;;;;;;0.55;0.35;;;;;;;;;;4808067;29;20050;-84
2024/01/04 02:18:18;;;;;;;1.70;0.50;;;;;;;;;;4805064;29;20130;-83
2024/01/04 02:20:44;;;;;;;0.52;0.40;;;;;;;;;;4809472;29;20046;-83
2024/01/04 02:23:18;;;;;;;3.05;0.30;;;;;;;;;;4806541;29;20406;-82
2024/01/04 02:25:44;;;;;;;3.17;1.00;;;;;;;;;;4806869;29;20050;-83
2024/01/04 02:28:10;;;;;;;0.00;0.00;;;;;;;;;;4810667;29;20050;-82
2024/01/04 02:30:36;;;;;;;0.00;0.00;;;;;;;;;;4807051;29;20153;-83
2024/01/04 02:33:02;;;;;;;1.02;0.17;;;;;;;;;;4814996;29;20046;-82
2024/01/04 02:35:29;;;;;;;3.92;0.73;;;;;;;;;;4822508;29;20038;-82
2024/01/04 02:37:55;;;;;;;0.30;0.10;;;;;;;;;;4803302;29;20051;-82
2024/01/04 02:40:22;;;;;;;3.55;0.40;;;;;;;;;;4800342;29;20038;-81
2024/01/04 02:42:48;;;;;;;0.43;0.30;;;;;;;;;;4829431;29;20404;-82
2024/01/04 02:45:16;;;;;;;0.13;0.13;;;;;;;;;;4822655;29;20046;-82
2024/01/04 02:47:45;;;;;;;0.60;0.40;;;;;;;;;;4822263;29;20396;-82
2024/01/04 02:50:11;;;;;;;1.27;0.43;;;;;;;;;;4806308;29;20045;-81
2024/01/04 02:52:38;;;;;;;0.50;0.20;;;;;;;;;;4825764;29;20038;-82
2024/01/04 02:55:04;;;;;;;1.05;0.43;;;;;;;;;;4813170;29;20042;-82
2024/01/04 02:57:30;;;;;;;0.30;0.20;;;;;;;;;;4805600;29;20056;-81
2024/01/04 02:59:56;;;;;;;0.47;0.30;;;;;;;;;;4806299;29;20054;-82
2024/01/04 03:02:22;;;;;;;1.75;0.52;;;;;;;;;;4805190;29;20046;-81
2024/01/04 03:04:48;;;;;;;0.55;0.35;;;;;;;;;;4822464;29;20042;-82
2024/01/04 03:07:14;;;;;;;1.98;1.00;;;;;;;;;;4819782;29;20073;-81
2024/01/04 03:09:40;;;;;;;1.77;0.63;;;;;;;;;;4803541;29;20150;-81
2024/01/04 03:12:06;;;;;;;2.53;0.77;;;;;;;;;;4821524;29;20057;-81
2024/01/04 03:14:32;;;;;;;3.80;1.15;;;;;;;;;;4798919;29;20074;-81
2024/01/04 03:16:58;;;;;;;1.08;0.47;;;;;;;;;;4822098;29;20397;-81
2024/01/04 03:19:24;;;;;;;2.42;0.88;;;;;;;;;;4822818;29;20050;-81
2024/01/04 03:21:50;;;;;;;0.60;0.20;;;;;;;;;;4826938;29;20053;-82
2024/01/04 03:24:16;;;;;;;0.85;0.75;;;;;;;;;;4822570;29;20100;-82
2024/01/04 03:26:42;;;;;;;0.10;0.10;;;;;;;;;;4812704;29;20050;-82
2024/01/04 03:29:08;;;;;;;0.15;0.10;;;;;;;;;;4822208;29;20057;-81
2024/01/04 03:31:34;;;;;;;0.20;0.10;;;;;;;;;;4807119;29;20047;-82
2024/01/04 03:34:00;;;;;;;0.47;0.20;;;;;;;;;;4822233;29;20481;-81
2024/01/04 03:36:26;;;;;;;0.50;0.38;;;;;;;;;;4822766;29;20096;-82
2024/01/04 03:38:52;;;;;;;0.93;0.57;;;;;;;;;;4822946;29;20050;-82
2024/01/04 03:41:18;;;;;;;1.13;0.65;;;;;;;;;;4806595;29;20561;-81
2024/01/04 03:43:44;;;;;;;0.57;0.13;;;;;;;;;;4814092;29;20046;-81
2024/01/04 03:46:10;;;;;;;0.10;0.10;;;;;;;;;;4803507;29;20078;-81
2024/01/04 03:48:36;;;;;;;0.10;0.10;;;;;;;;;;4812096;29;20051;-81
2024/01/04 03:51:02;;;;;;;0.00;0.00;;;;;;;;;;4805732;29;20108;-81
2024/01/04 03:53:28;;;;;;;0.10;0.10;;;;;;;;;;4821877;29;20042;-82
2024/01/04 03:55:54;;;;;;;0.47;0.22;;;;;;;;;;4805898;29;20052;-82
2024/01/04 03:58:20;;;;;;;1.48;0.25;;;;;;;;;;4822890;29;20058;-82
2024/01/04 04:00:46;;;;;;;0.88;0.25;;;;;;;;;;4823162;29;20054;-82
2024/01/04 04:03:12;;;;;;;2.05;0.73;;;;;;;;;;4823257;29;20557;-82
2024/01/04 04:05:38;;;;;;;0.68;0.55;;;;;;;;;;4790015;29;20133;-82
2024/01/04 04:08:04;;;;;;;0.50;0.15;;;;;;;;;;4815558;29;20070;-82
2024/01/04 04:10:30;;;;;;;0.50;0.38;;;;;;;;;;4800125;29;20142;-82
2024/01/04 04:12:56;;;;;;;0.38;0.20;;;;;;;;;;4798307;29;20271;-83
2024/01/04 04:15:22;;;;;;;0.10;0.10;;;;;;;;;;4827649;29;20053;-82
2024/01/04 04:17:48;;;;;;;0.55;0.30;;;;;;;;;;4789199;29;20395;-82
2024/01/04 04:20:14;;;;;;;1.52;0.00;;;;;;;;;;4805678;29;20049;-82
2024/01/04 04:22:40;;;;;;;0.30;0.10;;;;;;;;;;4793091;29;20165;-82
2024/01/04 04:25:06;;;;;;;0.13;0.10;;;;;;;;;;4812182;29;20129;-83
2024/01/04 04:27:32;;;;;;;1.00;0.50;;;;;;;;;;4824393;29;20046;-83
2024/01/04 04:29:58;;;;;;;0.75;0.40;;;;;;;;;;4823060;29;20053;-83
2024/01/04 04:32:24;;;;;;;0.20;0.08;;;;;;;;;;4809037;29;20066;-83
2024/01/04 04:34:50;;;;;;;0.00;0.00;;;;;;;;;;4810553;29;20054;-83
2024/01/04 04:37:16;;;;;;;4.47;0.45;;;;;;;;;;4804735;29;20069;-82
2024/01/04 04:39:42;;;;;;;3.00;1.33;;;;;;;;;;4817841;29;20043;-82
2024/01/04 04:42:08;;;;;;;1.25;0.70;;;;;;;;;;4816329;29;20073;-82
2024/01/04 04:44:34;;;;;;;2.00;0.63;;;;;;;;;;4804609;29;20058;-82
2024/01/04 04:47:00;;;;;;;0.73;0.65;;;;;;;;;;4807794;29;20047;-82
2024/01/04 04:49:28;;;;;;;0.22;0.17;;;;;;;;;;4821646;29;20488;-83
2024/01/04 04:51:54;;;;;;;0.00;0.00;;;;;;;;;;4802256;29;20406;-82
2024/01/04 04:54:20;;;;;;;16.05;0.75;;;;;;;;;;4816461;29;20559;-82
2024/01/04 04:56:46;;;;;;;0.73;0.20;;;;;;;;;;4820284;29;20489;-82
2024/01/04 04:59:13;;;;;;;0.47;0.20;;;;;;;;;;4805436;29;20050;-83
2024/01/04 05:01:40;;;;;;;0.30;0.30;;;;;;;;;;4804965;29;20138;-82
2024/01/04 05:04:06;;;;;;;0.03;0.03;;;;;;;;;;4805678;29;20228;-82
2024/01/04 05:06:32;;;;;;;0.60;0.50;;;;;;;;;;4825299;29;20041;-82
2024/01/04 05:08:58;;;;;;;5.03;0.88;;;;;;;;;;4804968;29;20046;-82
2024/01/04 05:11:24;;;;;;;0.43;0.15;;;;;;;;;;4807148;29;20374;-82
2024/01/04 05:13:50;;;;;;;4.30;0.52;;;;;;;;;;4820390;29;20065;-82
2024/01/04 05:16:16;;;;;;;1.02;0.40;;;;;;;;;;4807263;29;20066;-83
2024/01/04 05:18:42;;;;;;;1.42;0.47;;;;;;;;;;4803132;29;20055;-82
2024/01/04 05:21:08;;;;;;;0.00;0.00;;;;;;;;;;4804918;29;20052;-83
2024/01/04 05:23:34;;;;;;;0.20;0.17;;;;;;;;;;4821803;29;20043;-82
2024/01/04 05:26:00;;;;;;;0.20;0.10;;;;;;;;;;4822730;29;20058;-83
2024/01/04 05:28:26;;;;;;;0.22;0.10;;;;;;;;;;4808677;29;20046;-82
2024/01/04 05:30:52;;;;;;;0.43;0.22;;;;;;;;;;4813757;29;20673;-83
2024/01/04 05:33:18;;;;;;;0.52;0.40;;;;;;;;;;4812499;29;20061;-82
2024/01/04 05:35:45;;;;;;;0.25;0.05;;;;;;;;;;4829816;29;20057;-82
2024/01/04 05:38:11;;;;;;;0.10;0.10;;;;;;;;;;4805725;29;20066;-83
2024/01/04 05:40:37;;;;;;;0.70;0.17;;;;;;;;;;4802897;29;20043;-83
2024/01/04 05:43:03;;;;;;;0.73;0.43;;;;;;;;;;4798738;29;20061;-82
2024/01/04 05:45:29;;;;;;;0.38;0.20;;;;;;;;;;4824662;29;20034;-82
2024/01/04 05:47:55;;;;;;;0.32;0.20;;;;;;;;;;4807996;29;20055;-82
2024/01/04 05:50:21;;;;;;;0.52;0.00;;;;;;;;;;4825859;29;20497;-82
2024/01/04 05:52:47;;;;;;;0.10;0.00;;;;;;;;;;4819333;29;20061;-82
2024/01/04 05:55:13;;;;;;;2.85;0.80;;;;;;;;;;4824900;29;20031;-82
2024/01/04 05:57:39;;;;;;;0.10;0.10;;;;;;;;;;4807718;29;20058;-81
2024/01/04 06:00:05;;;;;;;0.00;0.00;;;;;;;;;;4807335;29;20041;-83
2024/01/04 06:02:31;;;;;;;0.00;0.00;;;;;;;;;;4807475;29;20050;-81
2024/01/04 06:04:57;;;;;;;0.10;0.03;;;;;;;;;;4824137;29;20074;-82
2024/01/04 06:07:29;;;;;;;0.10;0.10;;;;;;;;;;4823852;29;20070;-81
2024/01/04 06:09:58;;;;;;;5.90;0.22;;;;;;;;;;4799782;29;20240;-81
2024/01/04 06:12:24;;;;;;;0.20;0.10;;;;;;;;;;4824700;29;20042;-82
2024/01/04 06:14:51;;;;;;;0.30;0.20;;;;;;;;;;4815019;29;20050;-82
2024/01/04 06:17:17;;;;;;;1.10;0.43;;;;;;;;;;4807236;29;20084;-82
2024/01/04 06:19:44;;;;;;;0.30;0.22;;;;;;;;;;4804059;29;20047;-82
2024/01/04 06:22:23;;;;;;;0.00;0.00;;;;;;;;;;4799637;29;20073;-82
2024/01/04 06:28:12;;;;;;;2.80;0.30;;;;;;;;;;4795497;29;20061;-83
2024/01/04 06:30:40;;;;;;;0.10;0.10;;;;;;;;;;4807760;29;20042;-83
2024/01/04 06:33:09;;;;;;;0.32;0.22;;;;;;;;;;4800966;29;20049;-82
2024/01/04 06:35:39;;;;;;;;;;;;;;;;;;4787234;29;20059;-82
2024/01/04 06:38:08;;;;;;;1.88;0.80;;;;;;;;;;4801097;29;20344;-82
2024/01/04 06:40:37;;;;;;;3.97;0.60;;;;;;;;;;4807037;29;20121;-83
2024/01/04 06:43:24;;;;;;;0.93;0.40;;;;;;;;;;4805845;29;20050;-84
2024/01/04 06:45:50;;;;;;;2.58;1.02;;;;;;;;;;4816888;29;20046;-84
2024/01/04 06:48:19;;;;;;;3.30;1.13;;;;;;;;;;4806882;29;20042;-84
2024/01/04 06:50:45;;;;;;;2.10;0.88;;;;;;;;;;4807644;29;20068;-83
2024/01/04 06:53:14;;;;;;;1.38;0.80;;;;;;;;;;4805634;29;20057;-83
2024/01/04 06:55:43;;;;;;;3.20;0.73;;;;;;;;;;4795922;29;20078;-84
2024/01/04 06:58:20;;;;;;;0.40;0.30;;;;;;;;;;4797291;29;20043;-85
2024/01/04 07:00:46;;;;;;;0.25;0.10;;;;;;;;;;4807286;29;20046;-84
2024/01/04 07:03:12;;;;;;;1.38;0.60;;;;;;;;;;4806127;29;20487;-84
2024/01/04 07:05:38;;;;;;;0.88;0.30;;;;;;;;;;4804659;29;20493;-84
2024/01/04 07:08:04;;;;;;;2.75;0.77;;;;;;;;;;4797288;29;20050;-84
2024/01/04 07:10:30;;;;;;;1.45;1.05;;;;;;;;;;4807969;29;20060;-84
2024/01/04 07:12:56;;;;;;;2.03;0.77;;;;;;;;;;4810330;29;20079;-84
2024/01/04 07:15:22;;;;;;;1.48;1.00;;;;;;;;;;4801695;29;20042;-84
2024/01/04 07:17:48;;;;;;;1.60;0.35;;;;;;;;;;4806196;29;20058;-84
2024/01/04 07:20:15;;;;;;;1.17;0.70;;;;;;;;;;4822660;29;20054;-83
2024/01/04 07:22:41;;;;;;;0.68;0.30;;;;;;;;;;4806086;29;20133;-84
2024/01/04 07:25:07;;;;;;;0.63;0.38;;;;;;;;;;4823173;29;20125;-83
2024/01/04 07:27:33;;;;;;;1.95;0.77;;;;;;;;;;4811013;29;20048;-84
2024/01/04 07:30:00;;;;;;;1.85;1.17;;;;;;;;;;4812596;29;20092;-84
2024/01/04 07:32:26;;;;;;;0.38;0.25;;;;;;;;;;4820521;29;20043;-84
2024/01/04 07:34:52;;;;;;;1.95;0.40;;;;;;;;;;4806008;29;20066;-83
2024/01/04 07:37:18;;;;;;;0.30;0.20;;;;;;;;;;4809119;29;20513;-84
2024/01/04 07:39:44;;;;;;;0.55;0.38;;;;;;;;;;4818548;29;20053;-83
2024/01/04 07:42:10;;;;;;;3.85;0.13;;;;;;;;;;4833760;29;20060;-84
2024/01/04 07:44:36;;;;;;;0.17;0.15;;;;;;;;;;4805712;29;20050;-83
2024/01/04 07:47:02;;;;;;;0.05;0.03;;;;;;;;;;4802465;29;20051;-83
2024/01/04 07:49:28;;;;;;;0.00;0.00;;;;;;;;;;4789911;29;20043;-84
2024/01/04 07:51:54;;;;;;;0.25;0.10;;;;;;;;;;4798453;29;20150;-84
2024/01/04 07:54:20;;;;;;;0.10;0.10;;;;;;;;;;4807764;29;20501;-83
2024/01/04 07:56:46;;;;;;;0.32;0.28;;;;;;;;;;4829622;29;20497;-82
2024/01/04 07:59:12;;;;;;;0.47;0.10;;;;;;;;;;4806463;29;20061;-82
2024/01/04 08:01:38;;;;;;;0.82;0.43;;;;;;;;;;4813477;29;20181;-83
2024/01/04 08:04:04;;;;;;;0.60;0.10;;;;;;;;;;4818625;29;20061;-83
2024/01/04 08:06:33;;;;;;;1.15;0.30;;;;;;;;;;4818291;29;20984;-83
2024/01/04 08:08:59;;;;;;;0.38;0.17;;;;;;;;;;4821158;29;20050;-83
2024/01/04 08:11:32;;;;;;;1.13;0.63;;;;;;;;;;5079747;27;20433;-83
2024/01/04 08:13:58;;;;;;;1.63;0.82;;;;;;;;;;5076275;28;20032;-84
2024/01/04 08:16:24;;;;;;;2.65;1.25;;;;;;;;;;5084891;28;20848;-84
2024/01/04 08:18:50;;;;;;;2.35;1.30;;;;;;;;;;5082629;28;20624;-83
2024/01/04 08:21:18;;;;;;;2.28;0.35;;;;;;;;;;5083181;28;20041;-83
2024/01/04 08:23:44;;;;;;;1.45;0.88;;;;;;;;;;5085788;28;20040;-83
2024/01/04 08:26:10;;;;;;;0.30;0.20;;;;;;;;;;5081336;28;20120;-83
2024/01/04 08:28:37;;;;;;;1.35;0.68;;;;;;;;;;5065498;28;20127;-83
2024/01/04 08:31:03;;;;;;;1.00;0.40;;;;;;;;;;5068899;28;20454;-84
2024/01/04 08:33:29;;;;;;;1.35;0.28;;;;;;;;;;5073979;28;20035;-83
2024/01/04 08:35:59;;;;;;;0.30;0.20;;;;;;;;;;5083120;28;20123;-83
2024/01/04 08:38:25;;;;;;;0.10;0.00;;;;;;;;;;5070831;28;20880;-83
2024/01/04 08:40:51;;;;;;;1.02;0.40;;;;;;;;;;5078740;28;20033;-83
2024/01/04 08:43:17;;;;;;;0.47;0.45;;;;;;;;;;5074424;28;20036;-83
2024/01/04 08:45:43;;;;;;;3.17;0.75;;;;;;;;;;5074617;28;20044;-83
2024/01/04 08:48:09;;;;;;;1.85;0.65;;;;;;;;;;5081283;28;20462;-82
2024/01/04 08:50:35;;;;;;;5.47;0.88;;;;;;;;;;5079079;28;20032;-83
2024/01/04 08:53:01;;;;;;;1.13;0.65;;;;;;;;;;5070845;28;20025;-83
2024/01/04 08:55:27;;;;;;;1.92;0.90;;;;;;;;;;5070034;28;20032;-83
2024/01/04 08:57:53;;;;;;;2.67;1.00;;;;;;;;;;5075185;28;20056;-83
2024/01/04 09:00:19;;;;;;;1.35;0.82;;;;;;;;;;5079469;28;20044;-83
2024/01/04 09:02:46;;;;;;;0.80;0.55;;;;;;;;;;5073879;28;20116;-83
2024/01/04 09:05:12;;;;;;;4.72;0.65;;;;;;;;;;5074940;28;20037;-83
2024/01/04 09:07:38;;;;;;;4.60;0.88;;;;;;;;;;5072095;28;20063;-83
2024/01/04 09:10:05;;;;;;;0.47;0.20;;;;;;;;;;5075015;28;20125;-83
2024/01/04 09:12:31;;;;;;;0.98;0.20;;;;;;;;;;5074943;28;20044;-83
2024/01/04 09:14:57;;;;;;;0.43;0.20;;;;;;;;;;5079100;28;20462;-82
2024/01/04 09:17:23;;;;;;;1.17;0.63;;;;;;;;;;5078680;28;20508;-83
2024/01/04 09:19:51;;;;;;;2.67;0.95;;;;;;;;;;5065000;28;20079;-83
2024/01/04 09:22:17;;;;;;;1.88;1.00;;;;;;;;;;5065069;28;20037;-83
2024/01/04 09:24:45;;;;;;;1.23;0.85;;;;;;;;;;5057397;28;20051;-83
2024/01/04 09:27:14;;;;;;;0.77;0.30;;;;;;;;;;5060736;28;20689;-83
2024/01/04 09:29:41;;;;;;;0.15;0.15;;;;;;;;;;5065040;28;20041;-84
2024/01/04 09:32:07;;;;;;;1.60;0.32;;;;;;;;;;5052673;28;20518;-84
2024/01/04 09:34:33;;;;;;;1.75;0.70;;;;;;;;;;5059048;28;20101;-84
2024/01/04 09:37:00;;;;;;;1.77;0.80;;;;;;;;;;5052765;28;20774;-84
2024/01/04 09:39:29;;;;;;;0.10;0.10;;;;;;;;;;5054685;28;20402;-84
2024/01/04 09:41:56;;;;;;;0.30;0.20;;;;;;;;;;5069725;28;20024;-84
2024/01/04 09:44:24;;;;;;;2.10;0.70;;;;;;;;;;5063856;28;20052;-84
2024/01/04 09:46:57;;;;;;;1.98;0.52;;;;;;;;;;5053029;28;20479;-84
2024/01/04 09:49:23;;;;;;;0.15;0.05;;;;;;;;;;5057109;28;20036;-83
2024/01/04 09:51:49;;;;;;;0.93;0.20;;;;;;;;;;5061266;28;20028;-83
2024/01/04 09:54:17;;;;;;;0.57;0.10;;;;;;;;;;5052026;28;20037;-83
2024/01/04 09:56:46;;;;;;;2.35;0.32;;;;;;;;;;5060230;28;20485;-84
2024/01/04 09:59:12;;;;;;;0.55;0.40;;;;;;;;;;5060779;28;20386;-83
2024/01/04 10:01:39;;;;;;;2.50;1.52;;;;;;;;;;5068292;28;20490;-84
2024/01/04 10:04:24;;;;;;;1.23;0.75;;;;;;;;;;5068413;28;20112;-84
2024/01/04 10:06:51;;;;;;;0.20;0.17;;;;;;;;;;5065226;28;20033;-84
2024/01/04 10:09:20;;;;;;;4.68;0.77;;;;;;;;;;5062900;28;20036;-84
2024/01/04 10:11:52;;;;;;;1.00;0.50;;;;;;;;;;5060704;28;20119;-84
2024/01/04 10:14:19;;;;;;;5.05;0.63;;;;;;;;;;5053421;28;20478;-85
2024/01/04 10:16:45;;;;;;;;;;;;;;;;;;5062575;28;20115;-84
2024/01/04 10:19:11;;;;;;;0.88;0.50;;;;;;;;;;5068295;28;20619;-84
2024/01/04 10:21:38;;;;;;;1.30;0.60;;;;;;;;;;5067650;28;20366;-84
2024/01/04 10:24:04;;;;;;;4.10;0.70;;;;;;;;;;5058273;28;20386;-84
2024/01/04 10:26:30;;;;;;;1.17;0.52;;;;;;;;;;5060861;28;20723;-84
2024/01/04 10:28:56;;;;;;;0.90;0.50;;;;;;;;;;5065550;28;20387;-84
2024/01/04 10:31:23;;;;;;;1.85;0.43;;;;;;;;;;5059045;28;20162;-84
2024/01/04 10:34:01;;;;;;;0.63;0.43;;;;;;;;;;5057086;28;20046;-84
2024/01/04 10:36:32;;;;;;;1.83;1.00;;;;;;;;;;5068580;28;20041;-84
2024/01/04 10:38:59;;;;;;;0.57;0.45;;;;;;;;;;5057245;28;20064;-84
2024/01/04 10:41:29;;;;;;;6.03;0.88;;;;;;;;;;5069886;28;20827;-84
2024/01/04 10:44:07;;;;;;;0.45;0.20;;;;;;;;;;5060972;28;20702;-84
2024/01/04 10:46:34;;;;;;;1.05;0.45;;;;;;;;;;5051964;28;20036;-84
2024/01/04 10:49:01;;;;;;;0.30;0.10;;;;;;;;;;5052175;28;20625;-84
2024/01/04 10:51:28;;;;;;;0.57;0.22;;;;;;;;;;5053141;28;20041;-84
2024/01/04 10:53:56;;;;;;;0.15;0.00;;;;;;;;;;5067508;28;20027;-84
2024/01/04 10:56:22;;;;;;;0.10;0.10;;;;;;;;;;5055600;28;20041;-85
2024/01/04 10:58:49;;;;;;;0.45;0.25;;;;;;;;;;5059984;28;20029;-85
2024/01/04 11:01:16;;;;;;;1.83;0.90;;;;;;;;;;5058897;28;20174;-84
2024/01/04 11:03:43;;;;;;;1.10;0.45;;;;;;;;;;5054546;28;20037;-85
2024/01/04 11:06:09;;;;;;;1.30;0.40;;;;;;;;;;5059751;28;20037;-85
2024/01/04 11:08:36;;;;;;;1.20;0.28;;;;;;;;;;5052925;28;20035;-85
2024/01/04 11:11:03;;;;;;;2.45;1.15;;;;;;;;;;5063409;28;20045;-84
2024/01/04 11:13:29;;;;;;;5.55;1.13;;;;;;;;;;5058105;28;22316;-85
2024/01/04 11:15:56;;;;;;;1.50;0.98;;;;;;;;;;5066734;28;20036;-85
2024/01/04 11:18:22;;;;;;;2.50;1.00;;;;;;;;;;5057605;28;20028;-84
2024/01/04 11:21:00;;;;;;;2.20;0.50;;;;;;;;;;5050540;28;20033;-84
2024/01/04 11:23:26;;;;;;;1.05;0.75;;;;;;;;;;5064529;28;20119;-84
2024/01/04 11:25:55;;;;;;;0.98;0.32;;;;;;;;;;5065486;28;20068;-84
2024/01/04 11:28:22;;;;;;;6.57;0.85;;;;;;;;;;5056797;28;20041;-84
2024/01/04 11:30:52;;;;;;;1.40;0.57;;;;;;;;;;5052418;28;20128;-84
2024/01/04 11:33:21;;;;;;;1.75;0.98;;;;;;;;;;5059001;28;20374;-84
2024/01/04 11:35:51;;;;;;;7.00;0.90;;;;;;;;;;5059891;28;20068;-84
2024/01/04 11:38:24;;;;;;;2.10;0.57;;;;;;;;;;5058269;28;20028;-85
2024/01/04 11:40:50;;;;;;;1.63;0.43;;;;;;;;;;5049363;28;20068;-84
2024/01/04 11:43:16;;;;;;;2.70;0.93;;;;;;;;;;5066466;28;20075;-84
2024/01/04 11:45:46;;;;;;;0.40;0.30;;;;;;;;;;5067475;28;20048;-84
2024/01/04 11:48:13;;;;;;;0.50;0.43;;;;;;;;;;5067199;28;20095;-84
2024/01/04 11:50:54;;;;;;;1.13;0.50;;;;;;;;;;5068239;28;20086;-84
2024/01/04 11:53:20;;;;;;;0.20;0.15;;;;;;;;;;5059167;28;20029;-84
2024/01/04 11:55:49;;;;;;;2.92;0.45;;;;;;;;;;5059534;28;20087;-84
2024/01/04 11:58:24;;;;;;;0.47;0.30;;;;;;;;;;5058055;28;20355;-84
2024/01/04 12:00:52;;;;;;;0.28;0.10;;;;;;;;;;5054025;28;20044;-84
2024/01/04 12:03:22;;;;;;;0.25;0.10;;;;;;;;;;5050697;28;20025;-84
2024/01/04 12:05:50;;;;;;;1.58;0.10;;;;;;;;;;5052633;28;20489;-84
2024/01/04 12:08:28;;;;;;;1.08;0.52;;;;;;;;;;5053652;28;20059;-84
2024/01/04 12:11:04;;;;;;;0.40;0.30;;;;;;;;;;5056023;28;20103;-84
2024/01/04 12:13:32;;;;;;;0.50;0.30;;;;;;;;;;5057715;28;20029;-84
2024/01/04 12:15:59;;;;;;;0.60;0.25;;;;;;;;;;5066465;28;20033;-84
2024/01/04 12:18:25;;;;;;;0.20;0.20;;;;;;;;;;5056503;28;20044;-84
2024/01/04 12:20:51;;;;;;;0.22;0.17;;;;;;;;;;5067211;28;20071;-84
2024/01/04 12:23:20;;;;;;;0.55;0.32;;;;;;;;;;5052258;28;20127;-84
2024/01/04 12:25:49;;;;;;;1.40;0.73;;;;;;;;;;5038527;28;20132;-85
2024/01/04 12:28:15;;;;;;;0.75;0.40;;;;;;;;;;5037219;28;20897;-85
2024/01/04 12:30:41;;;;;;;0.82;0.38;;;;;;;;;;5028243;28;20148;-85
2024/01/04 12:33:09;;;;;;;2.38;0.45;;;;;;;;;;5022750;28;20033;-84
2024/01/04 12:35:35;;;;;;;0.85;0.25;;;;;;;;;;5029260;28;20516;-84
2024/01/04 12:38:04;;;;;;;1.45;0.50;;;;;;;;;;5015795;28;20034;-84
2024/01/04 12:40:40;;;;;;;0.82;0.45;;;;;;;;;;5029093;28;20122;-84
2024/01/04 12:43:17;;;;;;;0.70;0.30;;;;;;;;;;5021877;28;20558;-84
2024/01/04 12:45:43;;;;;;;0.22;0.17;;;;;;;;;;5027803;28;20120;-84
2024/01/04 12:48:09;;;;;;;3.40;0.10;;;;;;;;;;5016252;28;20108;-84
2024/01/04 12:50:37;;;;;;;0.45;0.20;;;;;;;;;;5020489;28;20719;-85
2024/01/04 12:53:06;;;;;;;1.08;0.25;;;;;;;;;;5041480;28;20101;-85
2024/01/04 12:55:34;;;;;;;0.50;0.30;;;;;;;;;;5020310;28;20063;-84
2024/01/04 12:58:00;;;;;;;0.55;0.40;;;;;;;;;;5058219;28;20707;-85
2024/01/04 13:00:26;;;;;;;0.63;0.35;;;;;;;;;;5067696;28;20065;-85
2024/01/04 13:02:53;;;;;;;1.33;0.60;;;;;;;;;;5064313;28;20041;-85
2024/01/04 13:05:19;;;;;;;0.70;0.43;;;;;;;;;;5070631;28;20385;-84
2024/01/04 13:07:47;;;;;;;0.20;0.10;;;;;;;;;;5061850;28;20048;-84
2024/01/04 13:10:13;;;;;;;0.57;0.43;;;;;;;;;;5052194;28;20051;-84
2024/01/04 13:12:39;;;;;;;6.95;0.98;;;;;;;;;;5061080;28;20466;-84
2024/01/04 13:15:07;;;;;;;1.35;0.55;;;;;;;;;;5051911;28;20843;-84
2024/01/04 13:17:33;;;;;;;0.73;0.32;;;;;;;;;;5053162;28;20078;-84
2024/01/04 13:20:00;;;;;;;1.70;0.43;;;;;;;;;;5063086;28;20146;-84
2024/01/04 13:22:26;;;;;;;0.00;0.00;;;;;;;;;;5063546;28;20482;-85
2024/01/04 13:24:52;;;;;;;0.08;0.08;;;;;;;;;;5070721;28;20078;-84
2024/01/04 13:27:22;;;;;;;1.55;0.60;;;;;;;;;;5071201;28;20048;-85
2024/01/04 13:29:50;;;;;;;7.05;0.38;;;;;;;;;;5058379;28;20373;-85
2024/01/04 13:32:16;;;;;;;1.58;0.60;;;;;;;;;;5059113;28;20101;-84
2024/01/04 13:34:44;;;;;;;1.00;0.60;;;;;;;;;;5063358;28;20095;-85
2024/01/04 13:37:13;;;;;;;1.20;0.60;;;;;;;;;;5061372;28;20036;-85
2024/01/04 13:39:41;;;;;;;0.75;0.40;;;;;;;;;;5054080;28;20067;-84
2024/01/04 13:42:10;;;;;;;2.13;0.80;;;;;;;;;;5053448;28;20135;-84
2024/01/04 13:44:40;;;;;;;0.22;0.10;;;;;;;;;;5050939;28;20382;-85
2024/01/04 13:47:06;;;;;;;3.03;0.52;;;;;;;;;;5070605;28;20035;-84
2024/01/04 13:49:32;;;;;;;4.13;0.30;;;;;;;;;;5067824;28;20373;-85
2024/01/04 13:52:00;;;;;;;0.38;0.32;;;;;;;;;;5066821;28;20389;-85
2024/01/04 13:54:30;;;;;;;0.35;0.20;;;;;;;;;;5053855;28;20052;-85
2024/01/04 13:56:57;;;;;;;2.38;1.08;;;;;;;;;;5067913;28;20040;-85
2024/01/04 13:59:29;;;;;;;2.10;1.23;;;;;;;;;;5050979;28;20624;-85
2024/01/04 14:01:59;;;;;;;7.30;1.40;;;;;;;;;;5061640;28;20044;-85
2024/01/04 14:04:25;;;;;;;0.85;0.60;;;;;;;;;;5050869;28;20691;-85
2024/01/04 14:06:51;;;;;;;2.53;0.93;;;;;;;;;;5068779;28;20029;-85
2024/01/04 14:09:20;;;;;;;0.40;0.32;;;;;;;;;;5063587;28;20059;-85
2024/01/04 14:11:49;;;;;;;0.43;0.20;;;;;;;;;;5061712;28;20120;-85
2024/01/04 14:14:18;;;;;;;1.05;0.30;;;;;;;;;;5070605;28;20048;-84
2024/01/04 14:16:44;;;;;;;0.93;0.38;;;;;;;;;;5066880;28;20029;-85
2024/01/04 14:19:10;;;;;;;1.65;0.73;;;;;;;;;;5064437;28;20478;-85
2024/01/04 14:21:36;;;;;;;2.85;1.60;;;;;;;;;;5052052;28;20116;-85
2024/01/04 14:24:04;;;;;;;2.33;1.13;;;;;;;;;;5052995;28;20037;-85
2024/01/04 14:26:34;;;;;;;2.65;1.13;;;;;;;;;;5060495;28;20041;-85
2024/01/04 14:29:02;;;;;;;5.55;2.72;;;;;;;;;;5061081;28;20121;-85
2024/01/04 14:31:33;;;;;;;7.20;2.80;;;;;;;;;;5057985;28;20033;-85
2024/01/04 14:34:01;;;;;;;7.63;2.10;;;;;;;;;;5064456;28;20068;-85
2024/01/04 14:36:27;;;;;;;8.93;2.47;;;;;;;;;;5050339;28;20024;-84
2024/01/04 14:38:54;;;;;;;5.18;2.67;;;;;;;;;;5061499;28;20036;-85
2024/01/04 14:41:22;;;;;;;6.32;3.30;;;;;;;;;;5055650;28;20042;-85
2024/01/04 14:43:54;;;;;;;3.95;2.40;;;;;;;;;;5068330;28;20078;-84
2024/01/04 14:46:29;;;;;;;9.03;2.37;;;;;;;;;;5057482;28;20090;-84